sensor_id;sensor_type;location;lat;lon;timestamp;P1;durP1;ratioP1;P2;durP2;ratioP2
47513;SDS011;33951;51.988;5.910;2022-12-11T00:00:30;118.65;;;38.40;;
47513;SDS011;33951;51.988;5.910;2022-12-11T00:02:58;107.40;;;36.50;;
47513;SDS011;33951;51.988;5.910;2022-12-11T00:05:31;169.90;;;44.63;;
47513;SDS011;33951;51.988;5.910;2022-12-11T00:08:16;112.65;;;36.45;;
47513;SDS011;33951;51.988;5.910;2022-12-11T00:10:51;172.52;;;43.60;;
47513;SDS011;33951;51.988;5.910;2022-12-11T00:20:27;225.65;;;51.85;;
47513;SDS011;33951;51.988;5.910;2022-12-11T00:26:41;167.48;;;42.53;;
47513;SDS011;33951;51.988;5.910;2022-12-11T00:29:49;199.52;;;46.95;;
47513;SDS011;33951;51.988;5.910;2022-12-11T00:32:42;161.55;;;42.50;;
47513;SDS011;33951;51.988;5.910;2022-12-11T00:41:40;166.23;;;43.33;;
47513;SDS011;33951;51.988;5.910;2022-12-11T00:44:06;177.93;;;44.30;;
47513;SDS011;33951;51.988;5.910;2022-12-11T00:46:41;202.02;;;48.90;;
47513;SDS011;33951;51.988;5.910;2022-12-11T00:52:04;156.52;;;44.65;;
47513;SDS011;33951;51.988;5.910;2022-12-11T00:54:32;143.82;;;42.22;;
47513;SDS011;33951;51.988;5.910;2022-12-11T00:57:08;131.48;;;36.35;;
47513;SDS011;33951;51.988;5.910;2022-12-11T05:03:07;154.40;;;47.83;;
47513;SDS011;33951;51.988;5.910;2022-12-11T05:05:35;103.18;;;36.70;;
47513;SDS011;33951;51.988;5.910;2022-12-11T05:11:04;140.25;;;45.10;;
47513;SDS011;33951;51.988;5.910;2022-12-11T05:13:45;130.40;;;44.45;;
47513;SDS011;33951;51.988;5.910;2022-12-11T05:16:31;108.68;;;39.13;;
47513;SDS011;33951;51.988;5.910;2022-12-11T06:08:57;76.85;;;31.73;;
47513;SDS011;33951;51.988;5.910;2022-12-11T06:15:59;97.32;;;39.83;;
47513;SDS011;33951;51.988;5.910;2022-12-11T06:23:07;88.40;;;37.35;;
47513;SDS011;33951;51.988;5.910;2022-12-11T06:33:21;73.05;;;32.60;;
47513;SDS011;33951;51.988;5.910;2022-12-11T06:53:22;66.47;;;31.30;;
47513;SDS011;33951;51.988;5.910;2022-12-11T06:56:23;71.05;;;33.20;;
47513;SDS011;33951;51.988;5.910;2022-12-11T06:59:30;60.30;;;29.95;;
47513;SDS011;33951;51.988;5.910;2022-12-11T07:16:31;58.53;;;27.73;;
47513;SDS011;33951;51.988;5.910;2022-12-11T07:29:49;62.83;;;29.67;;
47513;SDS011;33951;51.988;5.910;2022-12-11T07:37:05;50.80;;;26.92;;
47513;SDS011;33951;51.988;5.910;2022-12-11T08:04:47;45.70;;;23.42;;
47513;SDS011;33951;51.988;5.910;2022-12-11T08:10:14;50.03;;;25.02;;
47513;SDS011;33951;51.988;5.910;2022-12-11T08:12:48;49.53;;;23.88;;
47513;SDS011;33951;51.988;5.910;2022-12-11T08:24:03;37.20;;;21.13;;
47513;SDS011;33951;51.988;5.910;2022-12-11T08:26:49;42.75;;;23.05;;
47513;SDS011;33951;51.988;5.910;2022-12-11T08:29:51;38.63;;;18.88;;
47513;SDS011;33951;51.988;5.910;2022-12-11T08:32:24;42.20;;;21.42;;
47513;SDS011;33951;51.988;5.910;2022-12-11T09:43:04;34.35;;;19.95;;
47513;SDS011;33951;51.988;5.910;2022-12-11T09:49:26;35.85;;;19.13;;
47513;SDS011;33951;51.988;5.910;2022-12-11T09:55:35;33.05;;;19.05;;
47513;SDS011;33951;51.988;5.910;2022-12-11T10:00:45;34.13;;;18.77;;
47513;SDS011;33951;51.988;5.910;2022-12-11T10:12:08;39.15;;;21.30;;
47513;SDS011;33951;51.988;5.910;2022-12-11T10:17:29;33.97;;;19.17;;
47513;SDS011;33951;51.988;5.910;2022-12-11T10:20:02;34.13;;;20.52;;
47513;SDS011;33951;51.988;5.910;2022-12-11T10:23:02;40.35;;;21.30;;
47513;SDS011;33951;51.988;5.910;2022-12-11T10:26:16;36.08;;;20.63;;
47513;SDS011;33951;51.988;5.910;2022-12-11T10:29:11;38.30;;;20.00;;
47513;SDS011;33951;51.988;5.910;2022-12-11T10:37:08;33.53;;;18.48;;
47513;SDS011;33951;51.988;5.910;2022-12-11T10:39:36;35.60;;;20.65;;
47513;SDS011;33951;51.988;5.910;2022-12-11T10:44:58;43.35;;;25.02;;
47513;SDS011;33951;51.988;5.910;2022-12-11T10:47:25;31.65;;;19.35;;
47513;SDS011;33951;51.988;5.910;2022-12-11T10:50:22;40.20;;;20.45;;
47513;SDS011;33951;51.988;5.910;2022-12-11T10:53:16;32.20;;;18.67;;
47513;SDS011;33951;51.988;5.910;2022-12-11T10:56:13;37.42;;;20.77;;
47513;SDS011;33951;51.988;5.910;2022-12-11T10:58:53;43.55;;;24.27;;
47513;SDS011;33951;51.988;5.910;2022-12-11T11:02:03;36.85;;;21.58;;
47513;SDS011;33951;51.988;5.910;2022-12-11T11:04:44;36.08;;;20.20;;
47513;SDS011;33951;51.988;5.910;2022-12-11T11:07:31;30.48;;;19.30;;
47513;SDS011;33951;51.988;5.910;2022-12-11T11:12:41;39.00;;;21.40;;
47513;SDS011;33951;51.988;5.910;2022-12-11T11:15:32;37.22;;;21.10;;
47513;SDS011;33951;51.988;5.910;2022-12-11T11:18:10;35.42;;;20.73;;
47513;SDS011;33951;51.988;5.910;2022-12-11T11:21:05;33.80;;;20.85;;
47513;SDS011;33951;51.988;5.910;2022-12-11T11:24:18;34.83;;;22.23;;
47513;SDS011;33951;51.988;5.910;2022-12-11T11:29:21;39.50;;;23.15;;
47513;SDS011;33951;51.988;5.910;2022-12-11T11:31:52;37.70;;;23.92;;
47513;SDS011;33951;51.988;5.910;2022-12-11T11:34:19;35.40;;;21.80;;
47513;SDS011;33951;51.988;5.910;2022-12-11T11:36:56;38.97;;;25.52;;
47513;SDS011;33951;51.988;5.910;2022-12-11T11:44:26;37.28;;;22.73;;
47513;SDS011;33951;51.988;5.910;2022-12-11T11:47:01;38.60;;;25.40;;
47513;SDS011;33951;51.988;5.910;2022-12-11T11:49:49;35.03;;;23.67;;
47513;SDS011;33951;51.988;5.910;2022-12-11T11:52:27;36.75;;;23.13;;
47513;SDS011;33951;51.988;5.910;2022-12-11T11:55:14;35.42;;;23.67;;
47513;SDS011;33951;51.988;5.910;2022-12-11T11:57:51;42.78;;;26.23;;
47513;SDS011;33951;51.988;5.910;2022-12-11T12:00:25;44.08;;;23.27;;
47513;SDS011;33951;51.988;5.910;2022-12-11T12:03:08;40.45;;;24.17;;
47513;SDS011;33951;51.988;5.910;2022-12-11T12:17:46;36.65;;;22.35;;
47513;SDS011;33951;51.988;5.910;2022-12-11T12:20:26;38.78;;;22.55;;
47513;SDS011;33951;51.988;5.910;2022-12-11T12:23:10;38.78;;;23.48;;
47513;SDS011;33951;51.988;5.910;2022-12-11T12:26:04;39.10;;;23.25;;
47513;SDS011;33951;51.988;5.910;2022-12-11T12:28:45;69.95;;;39.67;;
47513;SDS011;33951;51.988;5.910;2022-12-11T12:31:29;38.88;;;21.60;;
47513;SDS011;33951;51.988;5.910;2022-12-11T12:37:28;42.45;;;23.80;;
47513;SDS011;33951;51.988;5.910;2022-12-11T12:48:15;37.20;;;20.38;;
47513;SDS011;33951;51.988;5.910;2022-12-11T12:50:41;37.50;;;21.55;;
47513;SDS011;33951;51.988;5.910;2022-12-11T12:53:15;40.15;;;22.15;;
47513;SDS011;33951;51.988;5.910;2022-12-11T12:55:43;38.42;;;21.88;;
47513;SDS011;33951;51.988;5.910;2022-12-11T12:58:29;37.13;;;22.00;;
47513;SDS011;33951;51.988;5.910;2022-12-11T13:01:17;41.03;;;22.88;;
47513;SDS011;33951;51.988;5.910;2022-12-11T13:03:58;40.97;;;22.45;;
47513;SDS011;33951;51.988;5.910;2022-12-11T13:06:38;36.33;;;20.73;;
47513;SDS011;33951;51.988;5.910;2022-12-11T13:09:09;43.60;;;22.88;;
47513;SDS011;33951;51.988;5.910;2022-12-11T13:11:43;36.17;;;21.88;;
47513;SDS011;33951;51.988;5.910;2022-12-11T13:16:43;38.25;;;22.73;;
47513;SDS011;33951;51.988;5.910;2022-12-11T13:26:47;36.83;;;22.55;;
47513;SDS011;33951;51.988;5.910;2022-12-11T13:29:30;40.45;;;22.17;;
47513;SDS011;33951;51.988;5.910;2022-12-11T13:34:32;38.88;;;22.33;;
47513;SDS011;33951;51.988;5.910;2022-12-11T13:37:20;43.03;;;23.23;;
47513;SDS011;33951;51.988;5.910;2022-12-11T13:39:52;40.67;;;23.55;;
47513;SDS011;33951;51.988;5.910;2022-12-11T13:42:27;39.42;;;23.50;;
47513;SDS011;33951;51.988;5.910;2022-12-11T13:44:57;42.58;;;23.23;;
47513;SDS011;33951;51.988;5.910;2022-12-11T13:47:23;39.97;;;23.10;;
47513;SDS011;33951;51.988;5.910;2022-12-11T13:49:52;36.90;;;23.13;;
47513;SDS011;33951;51.988;5.910;2022-12-11T13:52:21;40.78;;;25.35;;
47513;SDS011;33951;51.988;5.910;2022-12-11T13:54:52;38.92;;;22.55;;
47513;SDS011;33951;51.988;5.910;2022-12-11T13:57:23;39.30;;;23.75;;
47513;SDS011;33951;51.988;5.910;2022-12-11T13:59:53;39.33;;;23.10;;
47513;SDS011;33951;51.988;5.910;2022-12-11T14:02:27;39.65;;;24.75;;
47513;SDS011;33951;51.988;5.910;2022-12-11T14:04:57;34.33;;;20.67;;
47513;SDS011;33951;51.988;5.910;2022-12-11T14:07:32;34.65;;;20.42;;
47513;SDS011;33951;51.988;5.910;2022-12-11T14:10:01;39.80;;;23.27;;
47513;SDS011;33951;51.988;5.910;2022-12-11T14:12:30;38.13;;;22.40;;
47513;SDS011;33951;51.988;5.910;2022-12-11T14:14:57;40.88;;;22.90;;
47513;SDS011;33951;51.988;5.910;2022-12-11T14:17:29;38.72;;;21.17;;
47513;SDS011;33951;51.988;5.910;2022-12-11T14:19:58;45.58;;;26.55;;
47513;SDS011;33951;51.988;5.910;2022-12-11T14:22:27;39.40;;;23.20;;
47513;SDS011;33951;51.988;5.910;2022-12-11T14:24:55;38.33;;;22.02;;
47513;SDS011;33951;51.988;5.910;2022-12-11T14:27:23;32.15;;;19.10;;
47513;SDS011;33951;51.988;5.910;2022-12-11T14:29:50;32.75;;;20.70;;
47513;SDS011;33951;51.988;5.910;2022-12-11T14:35:28;34.53;;;20.40;;
47513;SDS011;33951;51.988;5.910;2022-12-11T14:37:59;33.35;;;20.05;;
47513;SDS011;33951;51.988;5.910;2022-12-11T14:40:30;37.17;;;21.50;;
47513;SDS011;33951;51.988;5.910;2022-12-11T14:43:02;33.40;;;18.67;;
47513;SDS011;33951;51.988;5.910;2022-12-11T14:45:34;38.42;;;20.17;;
47513;SDS011;33951;51.988;5.910;2022-12-11T14:48:04;39.27;;;22.03;;
47513;SDS011;33951;51.988;5.910;2022-12-11T14:53:09;37.63;;;20.63;;
47513;SDS011;33951;51.988;5.910;2022-12-11T14:55:38;32.75;;;19.58;;
47513;SDS011;33951;51.988;5.910;2022-12-11T14:59:05;42.33;;;24.35;;
47513;SDS011;33951;51.988;5.910;2022-12-11T15:01:07;38.08;;;20.90;;
47513;SDS011;33951;51.988;5.910;2022-12-11T15:04:06;39.85;;;21.08;;
47513;SDS011;33951;51.988;5.910;2022-12-11T15:06:44;33.92;;;19.75;;
47513;SDS011;33951;51.988;5.910;2022-12-11T15:09:53;31.83;;;19.98;;
47513;SDS011;33951;51.988;5.910;2022-12-11T15:12:11;32.30;;;20.55;;
47513;SDS011;33951;51.988;5.910;2022-12-11T15:17:14;37.63;;;20.23;;
47513;SDS011;33951;51.988;5.910;2022-12-11T15:19:40;39.55;;;21.08;;
47513;SDS011;33951;51.988;5.910;2022-12-11T15:22:12;36.80;;;21.70;;
47513;SDS011;33951;51.988;5.910;2022-12-11T15:24:41;40.78;;;23.73;;
47513;SDS011;33951;51.988;5.910;2022-12-11T15:30:01;37.97;;;22.40;;
47513;SDS011;33951;51.988;5.910;2022-12-11T15:35:35;36.80;;;22.23;;
47513;SDS011;33951;51.988;5.910;2022-12-11T15:38:02;35.47;;;20.67;;
47513;SDS011;33951;51.988;5.910;2022-12-11T15:40:28;36.72;;;20.83;;
47513;SDS011;33951;51.988;5.910;2022-12-11T15:42:54;32.20;;;19.30;;
47513;SDS011;33951;51.988;5.910;2022-12-11T15:45:22;33.83;;;19.77;;
47513;SDS011;33951;51.988;5.910;2022-12-11T15:47:50;33.42;;;20.27;;
47513;SDS011;33951;51.988;5.910;2022-12-11T15:50:23;34.55;;;20.35;;
47513;SDS011;33951;51.988;5.910;2022-12-11T15:52:50;39.70;;;23.75;;
47513;SDS011;33951;51.988;5.910;2022-12-11T16:32:31;42.25;;;22.08;;
47513;SDS011;33951;51.988;5.910;2022-12-11T17:14:55;33.88;;;22.58;;
47513;SDS011;33951;51.988;5.910;2022-12-11T17:17:21;37.83;;;23.00;;
47513;SDS011;33951;51.988;5.910;2022-12-11T17:19:47;49.08;;;29.92;;
47513;SDS011;33951;51.988;5.910;2022-12-11T17:22:12;37.92;;;23.27;;
47513;SDS011;33951;51.988;5.910;2022-12-11T17:24:39;36.45;;;24.15;;
47513;SDS011;33951;51.988;5.910;2022-12-11T17:58:16;34.58;;;21.67;;
47513;SDS011;33951;51.988;5.910;2022-12-11T18:01:34;34.90;;;22.90;;
47513;SDS011;33951;51.988;5.910;2022-12-11T18:21:13;35.80;;;21.35;;
47513;SDS011;33951;51.988;5.910;2022-12-11T18:27:15;40.80;;;23.80;;
47513;SDS011;33951;51.988;5.910;2022-12-11T18:29:50;39.40;;;22.60;;
47513;SDS011;33951;51.988;5.910;2022-12-11T18:32:16;36.78;;;21.73;;
47513;SDS011;33951;51.988;5.910;2022-12-11T18:34:42;42.88;;;23.67;;
47513;SDS011;33951;51.988;5.910;2022-12-11T18:37:07;34.17;;;22.63;;
47513;SDS011;33951;51.988;5.910;2022-12-11T18:39:38;37.50;;;21.75;;
47513;SDS011;33951;51.988;5.910;2022-12-11T18:42:07;40.63;;;24.45;;
47513;SDS011;33951;51.988;5.910;2022-12-11T18:45:02;41.67;;;24.75;;
47513;SDS011;33951;51.988;5.910;2022-12-11T18:47:29;39.90;;;21.77;;
47513;SDS011;33951;51.988;5.910;2022-12-11T18:50:00;62.70;;;35.47;;
47513;SDS011;33951;51.988;5.910;2022-12-11T18:52:26;42.53;;;24.40;;
47513;SDS011;33951;51.988;5.910;2022-12-11T18:54:54;37.75;;;24.33;;
47513;SDS011;33951;51.988;5.910;2022-12-11T18:57:49;34.85;;;21.52;;
47513;SDS011;33951;51.988;5.910;2022-12-11T19:00:18;40.15;;;23.50;;
47513;SDS011;33951;51.988;5.910;2022-12-11T19:02:51;46.58;;;25.58;;
47513;SDS011;33951;51.988;5.910;2022-12-11T19:05:17;35.03;;;21.98;;
47513;SDS011;33951;51.988;5.910;2022-12-11T19:08:03;39.00;;;21.77;;
47513;SDS011;33951;51.988;5.910;2022-12-11T19:10:35;34.75;;;20.30;;
47513;SDS011;33951;51.988;5.910;2022-12-11T19:13:24;35.58;;;22.23;;
47513;SDS011;33951;51.988;5.910;2022-12-11T19:19:15;37.45;;;21.63;;
47513;SDS011;33951;51.988;5.910;2022-12-11T19:21:58;36.40;;;21.02;;
47513;SDS011;33951;51.988;5.910;2022-12-11T19:24:43;32.55;;;19.17;;
47513;SDS011;33951;51.988;5.910;2022-12-11T19:27:18;32.08;;;20.98;;
47513;SDS011;33951;51.988;5.910;2022-12-11T19:30:09;32.72;;;21.30;;
47513;SDS011;33951;51.988;5.910;2022-12-11T19:32:46;39.60;;;23.42;;
47513;SDS011;33951;51.988;5.910;2022-12-11T19:35:14;35.45;;;20.80;;
47513;SDS011;33951;51.988;5.910;2022-12-11T19:40:52;33.08;;;19.83;;
47513;SDS011;33951;51.988;5.910;2022-12-11T19:43:20;30.75;;;19.70;;
47513;SDS011;33951;51.988;5.910;2022-12-11T19:45:49;42.90;;;22.80;;
47513;SDS011;33951;51.988;5.910;2022-12-11T19:48:15;32.28;;;20.88;;
47513;SDS011;33951;51.988;5.910;2022-12-11T19:50:40;31.67;;;19.85;;
47513;SDS011;33951;51.988;5.910;2022-12-11T19:53:26;62.85;;;35.30;;
47513;SDS011;33951;51.988;5.910;2022-12-11T19:59:40;30.40;;;19.15;;
47513;SDS011;33951;51.988;5.910;2022-12-11T20:02:24;35.05;;;21.38;;
47513;SDS011;33951;51.988;5.910;2022-12-11T20:04:50;33.08;;;21.45;;
47513;SDS011;33951;51.988;5.910;2022-12-11T20:07:16;35.35;;;23.67;;
47513;SDS011;33951;51.988;5.910;2022-12-11T20:09:47;34.57;;;22.13;;
47513;SDS011;33951;51.988;5.910;2022-12-11T20:12:23;31.02;;;22.42;;
47513;SDS011;33951;51.988;5.910;2022-12-11T20:14:49;31.83;;;19.27;;
47513;SDS011;33951;51.988;5.910;2022-12-11T20:17:17;30.48;;;20.02;;
47513;SDS011;33951;51.988;5.910;2022-12-11T20:19:43;34.40;;;21.02;;
47513;SDS011;33951;51.988;5.910;2022-12-11T20:22:11;42.80;;;22.90;;
47513;SDS011;33951;51.988;5.910;2022-12-11T20:24:36;48.45;;;27.75;;
47513;SDS011;33951;51.988;5.910;2022-12-11T20:27:02;42.65;;;23.00;;
47513;SDS011;33951;51.988;5.910;2022-12-11T20:29:30;45.35;;;24.17;;
47513;SDS011;33951;51.988;5.910;2022-12-11T20:31:58;36.42;;;21.63;;
47513;SDS011;33951;51.988;5.910;2022-12-11T20:34:24;32.15;;;20.05;;
47513;SDS011;33951;51.988;5.910;2022-12-11T20:36:51;34.35;;;22.08;;
47513;SDS011;33951;51.988;5.910;2022-12-11T20:39:22;37.35;;;22.88;;
47513;SDS011;33951;51.988;5.910;2022-12-11T20:41:48;40.50;;;23.83;;
47513;SDS011;33951;51.988;5.910;2022-12-11T20:44:19;38.42;;;23.40;;
47513;SDS011;33951;51.988;5.910;2022-12-11T20:46:45;35.83;;;24.15;;
47513;SDS011;33951;51.988;5.910;2022-12-11T20:49:11;35.60;;;22.40;;
47513;SDS011;33951;51.988;5.910;2022-12-11T20:51:39;35.88;;;20.60;;
47513;SDS011;33951;51.988;5.910;2022-12-11T20:54:05;33.97;;;20.75;;
47513;SDS011;33951;51.988;5.910;2022-12-11T20:56:42;34.95;;;21.48;;
47513;SDS011;33951;51.988;5.910;2022-12-11T20:59:15;36.25;;;21.30;;
47513;SDS011;33951;51.988;5.910;2022-12-11T21:01:41;36.03;;;22.42;;
47513;SDS011;33951;51.988;5.910;2022-12-11T21:16:34;30.95;;;19.25;;
47513;SDS011;33951;51.988;5.910;2022-12-11T21:19:18;32.20;;;20.50;;
47513;SDS011;33951;51.988;5.910;2022-12-11T21:22:04;34.03;;;21.10;;
47513;SDS011;33951;51.988;5.910;2022-12-11T21:24:30;38.42;;;24.20;;
47513;SDS011;33951;51.988;5.910;2022-12-11T21:27:14;54.22;;;28.52;;
47513;SDS011;33951;51.988;5.910;2022-12-11T21:30:09;49.10;;;24.60;;
47513;SDS011;33951;51.988;5.910;2022-12-11T21:33:01;46.97;;;25.25;;
47513;SDS011;33951;51.988;5.910;2022-12-11T21:35:29;43.50;;;23.25;;
47513;SDS011;33951;51.988;5.910;2022-12-11T21:38:22;51.17;;;25.95;;
47513;SDS011;33951;51.988;5.910;2022-12-11T21:41:16;39.00;;;23.70;;
47513;SDS011;33951;51.988;5.910;2022-12-11T21:44:46;36.95;;;24.27;;
47513;SDS011;33951;51.988;5.910;2022-12-11T21:47:50;47.58;;;27.33;;
47513;SDS011;33951;51.988;5.910;2022-12-11T21:51:20;46.90;;;25.15;;
47513;SDS011;33951;51.988;5.910;2022-12-11T22:00:47;38.00;;;22.85;;
47513;SDS011;33951;51.988;5.910;2022-12-11T22:04:06;38.00;;;23.60;;
47513;SDS011;33951;51.988;5.910;2022-12-11T22:06:59;35.15;;;21.33;;
47513;SDS011;33951;51.988;5.910;2022-12-11T22:09:31;48.80;;;24.95;;
47513;SDS011;33951;51.988;5.910;2022-12-11T22:29:02;36.47;;;22.70;;
47513;SDS011;33951;51.988;5.910;2022-12-11T22:31:28;35.03;;;21.92;;
47513;SDS011;33951;51.988;5.910;2022-12-11T22:33:54;35.08;;;21.55;;
47513;SDS011;33951;51.988;5.910;2022-12-11T22:36:23;40.35;;;22.95;;
47513;SDS011;33951;51.988;5.910;2022-12-11T22:38:56;39.47;;;22.73;;
47513;SDS011;33951;51.988;5.910;2022-12-11T22:41:46;33.55;;;20.42;;
47513;SDS011;33951;51.988;5.910;2022-12-11T22:45:20;33.22;;;21.15;;
47513;SDS011;33951;51.988;5.910;2022-12-11T22:48:20;32.30;;;21.42;;
47513;SDS011;33951;51.988;5.910;2022-12-11T22:51:02;31.83;;;19.38;;
47513;SDS011;33951;51.988;5.910;2022-12-11T22:57:39;35.03;;;20.25;;
47513;SDS011;33951;51.988;5.910;2022-12-11T23:14:03;35.72;;;19.52;;
47513;SDS011;33951;51.988;5.910;2022-12-11T23:22:57;31.23;;;19.77;;
47513;SDS011;33951;51.988;5.910;2022-12-11T23:26:21;30.33;;;17.75;;
47513;SDS011;33951;51.988;5.910;2022-12-11T23:28:57;28.60;;;19.13;;
47513;SDS011;33951;51.988;5.910;2022-12-11T23:48:01;30.63;;;17.58;;
